Time;durP1;ratioP1;P1;durP2;ratioP2;P2;SDS_P1;SDS_P2;PMS_P1;PMS_P2;Temp;Humidity;BMP_temperature;BMP_pressure;BME280_temperature;BME280_humidity;BME280_pressure;Samples;Min_cycle;Max_cycle;Signal;HPM_P1;HPM_P2
2021/10/01 00:01:23;;;;;;;2.58;1.30;;;;;;;;;;4920920;29;20027;-92
2021/10/01 00:03:49;;;;;;;3.97;0.88;;;;;;;;;;4921131;29;20038;-92
2021/10/01 00:06:15;;;;;;;1.30;0.60;;;;;;;;;;4920765;29;20032;-94
2021/10/01 00:08:42;;;;;;;2.50;1.02;;;;;;;;;;4920879;29;20091;-91
2021/10/01 00:11:08;;;;;;;2.38;0.95;;;;;;;;;;4921040;29;20032;-93
2021/10/01 00:13:34;;;;;;;4.18;1.23;;;;;;;;;;4920571;29;20035;-94
2021/10/01 00:16:00;;;;;;;1.75;0.82;;;;;;;;;;4937971;29;20157;-93
2021/10/01 00:18:26;;;;;;;1.48;0.85;;;;;;;;;;4920905;29;20034;-94
2021/10/01 00:20:53;;;;;;;2.75;0.98;;;;;;;;;;4920199;29;20035;-92
2021/10/01 00:23:19;;;;;;;1.95;0.98;;;;;;;;;;4920699;29;20032;-94
2021/10/01 00:25:45;;;;;;;4.28;0.95;;;;;;;;;;4921073;29;20035;-94
2021/10/01 00:28:11;;;;;;;2.22;0.90;;;;;;;;;;4920933;29;20032;-94
2021/10/01 00:30:37;;;;;;;10.13;1.08;;;;;;;;;;4921312;29;20020;-94
2021/10/01 00:33:04;;;;;;;1.45;0.80;;;;;;;;;;4920534;29;20039;-92
2021/10/01 00:35:30;;;;;;;3.40;0.80;;;;;;;;;;4920403;29;20131;-94
2021/10/01 00:37:58;;;;;;;2.00;0.68;;;;;;;;;;4921234;29;20024;-92
2021/10/01 00:40:25;;;;;;;1.30;0.70;;;;;;;;;;4931492;29;20031;-92
2021/10/01 00:42:51;;;;;;;1.75;0.90;;;;;;;;;;4926684;29;20043;-94
2021/10/01 00:45:17;;;;;;;1.30;0.55;;;;;;;;;;4920816;29;20425;-94
2021/10/01 00:47:43;;;;;;;1.60;0.70;;;;;;;;;;4920582;29;20023;-91
2021/10/01 00:50:10;;;;;;;2.88;0.77;;;;;;;;;;4920234;29;20036;-95
2021/10/01 00:52:36;;;;;;;4.18;0.98;;;;;;;;;;4920620;29;20032;-91
2021/10/01 00:55:03;;;;;;;3.22;1.13;;;;;;;;;;4920406;29;20044;-93
2021/10/01 00:57:30;;;;;;;1.70;0.95;;;;;;;;;;4920376;29;20024;-91
2021/10/01 00:59:56;;;;;;;2.22;0.85;;;;;;;;;;4920951;29;20095;-92
2021/10/01 01:02:23;;;;;;;4.82;1.30;;;;;;;;;;4920045;29;20036;-91
2021/10/01 01:04:49;;;;;;;4.47;0.68;;;;;;;;;;4920343;29;20081;-92
2021/10/01 01:07:39;;;;;;;1.85;1.08;;;;;;;;;;4920165;29;20034;-92
2021/10/01 01:10:08;;;;;;;2.13;0.93;;;;;;;;;;4921246;29;20059;-91
2021/10/01 01:12:55;;;;;;;3.05;1.35;;;;;;;;;;4920233;29;20020;-91
2021/10/01 01:15:29;;;;;;;1.00;0.52;;;;;;;;;;4920148;29;20504;-95
2021/10/01 01:17:55;;;;;;;;;;;;;;;;;;4920589;29;20384;-91
2021/10/01 01:20:30;;;;;;;1.38;0.82;;;;;;;;;;4920216;29;19913;-91
2021/10/01 01:23:15;;;;;;;0.82;0.43;;;;;;;;;;4921259;29;20396;-95
2021/10/01 01:26:04;;;;;;;1.55;0.52;;;;;;;;;;4920502;29;20465;-91
2021/10/01 01:28:31;;;;;;;3.53;0.65;;;;;;;;;;4885380;29;20043;-91
2021/10/01 01:31:01;;;;;;;1.42;0.57;;;;;;;;;;4920039;29;20521;-93
2021/10/01 01:33:29;;;;;;;1.00;0.40;;;;;;;;;;4922874;29;20087;-90
2021/10/01 01:35:57;;;;;;;4.10;2.05;;;;;;;;;;4923520;29;20119;-91
2021/10/01 01:38:43;;;;;;;3.30;1.45;;;;;;;;;;4923865;29;20020;-91
2021/10/01 01:41:11;;;;;;;4.88;1.45;;;;;;;;;;4924037;29;20548;-94
2021/10/01 01:43:39;;;;;;;6.13;1.80;;;;;;;;;;4924168;29;20031;-90
2021/10/01 01:46:06;;;;;;;7.22;2.72;;;;;;;;;;4923590;29;20042;-94
2021/10/01 01:48:32;;;;;;;5.50;2.60;;;;;;;;;;4923466;29;20059;-95
2021/10/01 01:50:59;;;;;;;3.72;1.67;;;;;;;;;;4923749;29;20055;-91
2021/10/01 01:53:25;;;;;;;3.80;1.42;;;;;;;;;;4923745;29;20110;-94
2021/10/01 01:55:52;;;;;;;3.40;1.85;;;;;;;;;;4923443;29;20036;-91
2021/10/01 01:58:19;;;;;;;3.40;1.38;;;;;;;;;;4923305;29;20034;-91
2021/10/01 02:00:47;;;;;;;3.90;1.33;;;;;;;;;;4923374;29;20039;-95
2021/10/01 02:03:15;;;;;;;5.40;1.38;;;;;;;;;;4923510;29;20083;-91
2021/10/01 02:05:44;;;;;;;2.95;1.30;;;;;;;;;;4923339;29;20166;-90
2021/10/01 02:08:10;;;;;;;1.75;0.80;;;;;;;;;;4923095;29;20027;-95
2021/10/01 02:10:37;;;;;;;2.95;1.17;;;;;;;;;;4923260;29;20031;-91
2021/10/01 02:13:08;;;;;;;2.05;0.82;;;;;;;;;;4922988;29;20111;-94
2021/10/01 02:15:35;;;;;;;2.40;1.08;;;;;;;;;;4922969;29;20042;-95
2021/10/01 02:18:03;;;;;;;3.35;1.00;;;;;;;;;;4922982;29;20095;-94
2021/10/01 02:20:30;;;;;;;4.20;0.95;;;;;;;;;;4923201;29;20062;-91
2021/10/01 02:22:57;;;;;;;4.03;0.98;;;;;;;;;;4923076;29;20114;-93
2021/10/01 02:28:19;;;;;;;1.67;0.85;;;;;;;;;;4940495;29;20445;-96
2021/10/01 02:30:46;;;;;;;3.55;1.30;;;;;;;;;;4922872;29;20027;-90
2021/10/01 02:33:13;;;;;;;1.95;0.95;;;;;;;;;;4922675;29;20083;-95
2021/10/01 02:35:40;;;;;;;1.67;0.80;;;;;;;;;;4922327;29;20056;-91
2021/10/01 02:38:06;;;;;;;3.08;0.85;;;;;;;;;;4922892;29;20366;-95
2021/10/01 02:40:33;;;;;;;3.20;1.17;;;;;;;;;;4923183;29;20092;-93
2021/10/01 02:42:59;;;;;;;3.42;1.10;;;;;;;;;;4922311;29;20083;-94
2021/10/01 02:45:25;;;;;;;2.25;1.05;;;;;;;;;;4922137;29;20035;-95
2021/10/01 02:47:51;;;;;;;2.13;0.73;;;;;;;;;;4922908;29;20031;-91
2021/10/01 02:50:19;;;;;;;1.50;0.88;;;;;;;;;;4922625;29;20469;-91
2021/10/01 02:52:58;;;;;;;10.05;0.80;;;;;;;;;;4922435;29;20028;-91
2021/10/01 02:55:27;;;;;;;1.48;0.70;;;;;;;;;;4922484;29;20131;-93
2021/10/01 02:58:11;;;;;;;4.60;1.20;;;;;;;;;;4922510;29;20241;-91
2021/10/01 03:00:38;;;;;;;4.38;0.90;;;;;;;;;;4922550;29;20031;-94
2021/10/01 03:03:05;;;;;;;1.98;0.70;;;;;;;;;;4922306;29;20035;-95
2021/10/01 03:05:32;;;;;;;2.20;0.93;;;;;;;;;;4922089;29;20493;-91
2021/10/01 03:07:59;;;;;;;1.77;0.77;;;;;;;;;;4922467;29;20028;-93
2021/10/01 03:10:26;;;;;;;1.90;0.77;;;;;;;;;;4922259;29;20057;-90
2021/10/01 03:12:54;;;;;;;3.20;0.88;;;;;;;;;;4922452;29;20027;-94
2021/10/01 03:15:21;;;;;;;2.20;1.02;;;;;;;;;;4922009;29;20153;-96
2021/10/01 03:17:47;;;;;;;1.88;1.00;;;;;;;;;;4922113;29;20541;-94
2021/10/01 03:20:14;;;;;;;2.55;1.27;;;;;;;;;;4922128;29;20032;-95
2021/10/01 03:22:41;;;;;;;3.60;1.67;;;;;;;;;;4921787;29;20111;-91
2021/10/01 03:25:09;;;;;;;2.45;0.85;;;;;;;;;;4921935;29;20122;-94
2021/10/01 03:27:35;;;;;;;3.25;1.15;;;;;;;;;;4921992;29;20481;-94
2021/10/01 03:30:03;;;;;;;2.85;1.15;;;;;;;;;;4922560;29;20037;-95
2021/10/01 03:32:30;;;;;;;2.63;1.23;;;;;;;;;;4934131;29;20481;-92
2021/10/01 03:34:57;;;;;;;1.58;0.80;;;;;;;;;;4933088;29;20060;-93
2021/10/01 03:37:24;;;;;;;2.28;1.08;;;;;;;;;;4922371;29;20107;-96
2021/10/01 03:39:57;;;;;;;1.77;0.90;;;;;;;;;;4922219;29;20054;-96
2021/10/01 03:42:24;;;;;;;1.40;0.85;;;;;;;;;;4921542;29;20027;-94
2021/10/01 03:44:50;;;;;;;1.30;0.70;;;;;;;;;;4921416;29;20039;-95
2021/10/01 03:47:17;;;;;;;1.13;0.70;;;;;;;;;;4921784;29;20485;-90
2021/10/01 03:49:43;;;;;;;8.15;1.08;;;;;;;;;;4921835;29;20035;-95
2021/10/01 03:52:11;;;;;;;1.23;0.75;;;;;;;;;;4921375;29;20035;-96
2021/10/01 03:54:39;;;;;;;3.28;0.85;;;;;;;;;;4921283;28;20098;-90
2021/10/01 03:57:05;;;;;;;2.05;1.15;;;;;;;;;;4921246;29;20028;-96
2021/10/01 03:59:31;;;;;;;2.22;1.13;;;;;;;;;;4921415;29;20023;-90
2021/10/01 04:01:57;;;;;;;8.57;1.15;;;;;;;;;;4922058;29;20430;-94
2021/10/01 04:04:24;;;;;;;1.60;0.70;;;;;;;;;;4920939;29;20118;-91
2021/10/01 04:06:50;;;;;;;5.45;1.00;;;;;;;;;;4921068;29;20152;-96
2021/10/01 04:09:17;;;;;;;11.40;0.93;;;;;;;;;;4921167;29;20028;-95
2021/10/01 04:11:43;;;;;;;1.17;0.70;;;;;;;;;;4921235;29;20028;-95
2021/10/01 04:14:09;;;;;;;3.42;1.00;;;;;;;;;;4921237;29;20032;-95
2021/10/01 04:16:36;;;;;;;2.80;1.17;;;;;;;;;;4921051;29;20038;-90
2021/10/01 04:19:02;;;;;;;2.17;1.23;;;;;;;;;;4921377;29;20028;-95
2021/10/01 04:21:28;;;;;;;4.68;1.30;;;;;;;;;;4920903;29;20153;-90
2021/10/01 04:23:54;;;;;;;1.35;0.73;;;;;;;;;;4920950;29;20500;-94
2021/10/01 04:26:21;;;;;;;2.20;0.90;;;;;;;;;;4921132;29;20481;-90
2021/10/01 04:28:48;;;;;;;2.78;1.30;;;;;;;;;;4920822;29;20028;-90
2021/10/01 04:31:14;;;;;;;3.97;0.93;;;;;;;;;;4920755;29;20504;-95
2021/10/01 04:33:42;;;;;;;4.05;1.80;;;;;;;;;;4920814;29;20032;-90
2021/10/01 04:36:08;;;;;;;3.15;1.25;;;;;;;;;;4917736;29;20060;-95
2021/10/01 04:38:34;;;;;;;1.75;0.95;;;;;;;;;;4917367;29;20028;-93
2021/10/01 04:41:01;;;;;;;1.38;0.77;;;;;;;;;;4917521;29;20087;-90
2021/10/01 04:43:28;;;;;;;2.58;1.00;;;;;;;;;;4901825;29;20028;-96
2021/10/01 04:45:54;;;;;;;3.17;1.13;;;;;;;;;;4902278;29;20549;-96
2021/10/01 04:48:20;;;;;;;3.60;1.05;;;;;;;;;;4902164;29;20024;-90
2021/10/01 04:50:47;;;;;;;2.72;0.80;;;;;;;;;;4902298;29;20036;-93
2021/10/01 04:53:13;;;;;;;2.65;1.27;;;;;;;;;;4905971;29;20024;-96
2021/10/01 04:55:40;;;;;;;5.13;1.27;;;;;;;;;;4927641;29;20394;-96
2021/10/01 04:58:07;;;;;;;1.85;0.90;;;;;;;;;;4905995;29;20039;-96
2021/10/01 05:00:33;;;;;;;3.58;1.23;;;;;;;;;;4910107;29;20028;-96
2021/10/01 05:03:02;;;;;;;4.28;1.88;;;;;;;;;;4902808;29;20084;-96
2021/10/01 05:05:28;;;;;;;1.55;0.85;;;;;;;;;;4904288;29;20028;-96
2021/10/01 05:08:01;;;;;;;3.83;1.00;;;;;;;;;;4918989;29;20490;-96
2021/10/01 05:10:37;;;;;;;4.07;1.58;;;;;;;;;;4921377;29;20103;-96
2021/10/01 05:13:03;;;;;;;5.63;1.15;;;;;;;;;;4901297;29;20111;-95
2021/10/01 05:15:29;;;;;;;3.67;1.30;;;;;;;;;;4901387;29;20036;-93
2021/10/01 05:17:58;;;;;;;4.38;0.85;;;;;;;;;;4901416;29;20028;-94
2021/10/01 05:20:24;;;;;;;2.65;1.00;;;;;;;;;;4901325;29;20553;-94
2021/10/01 05:22:50;;;;;;;2.15;1.23;;;;;;;;;;4901155;29;20085;-94
2021/10/01 05:25:17;;;;;;;2.65;1.17;;;;;;;;;;4901216;29;20478;-96
2021/10/01 05:27:43;;;;;;;2.00;1.17;;;;;;;;;;4901105;29;20386;-94
2021/10/01 05:30:09;;;;;;;6.28;1.25;;;;;;;;;;4901118;29;20509;-94
2021/10/01 05:32:36;;;;;;;2.63;0.85;;;;;;;;;;4901031;29;20024;-96
2021/10/01 05:35:02;;;;;;;2.00;1.30;;;;;;;;;;4908021;29;20486;-95
2021/10/01 05:37:29;;;;;;;3.65;1.65;;;;;;;;;;4920080;29;20039;-95
2021/10/01 05:39:55;;;;;;;9.02;1.60;;;;;;;;;;4920006;29;20024;-95
2021/10/01 05:42:21;;;;;;;2.72;1.23;;;;;;;;;;4920037;29;20024;-94
2021/10/01 05:44:48;;;;;;;6.40;1.45;;;;;;;;;;4919838;29;20537;-96
2021/10/01 05:47:14;;;;;;;4.38;1.23;;;;;;;;;;4919964;29;20032;-95
2021/10/01 05:49:42;;;;;;;3.25;1.20;;;;;;;;;;4919913;29;20107;-95
2021/10/01 05:55:00;;;;;;;3.95;1.00;;;;;;;;;;4909893;29;20122;-96
2021/10/01 05:57:26;;;;;;;1.60;1.00;;;;;;;;;;4923751;29;20055;-96
2021/10/01 05:59:54;;;;;;;3.35;1.17;;;;;;;;;;4938420;29;20028;-96
2021/10/01 06:02:22;;;;;;;3.60;0.60;;;;;;;;;;4940358;29;20024;-96
2021/10/01 06:04:52;;;;;;;3.58;0.90;;;;;;;;;;4938388;29;20085;-96
2021/10/01 06:07:20;;;;;;;3.25;1.20;;;;;;;;;;4922786;29;20047;-96
2021/10/01 06:09:50;;;;;;;6.25;1.10;;;;;;;;;;4938996;29;20051;-96
2021/10/01 06:12:35;;;;;;;4.70;0.93;;;;;;;;;;4921046;29;20035;-95
2021/10/01 06:15:20;;;;;;;4.95;1.05;;;;;;;;;;4939388;29;20039;-93
2021/10/01 06:18:15;;;;;;;4.95;1.15;;;;;;;;;;4941096;29;20103;-94
2021/10/01 06:21:05;;;;;;;3.55;1.10;;;;;;;;;;4947080;29;20072;-93
2021/10/01 06:23:50;;;;;;;2.63;1.00;;;;;;;;;;4943252;29;20032;-93
2021/10/01 06:26:49;;;;;;;1.42;0.73;;;;;;;;;;4946170;29;20035;-93
2021/10/01 06:29:17;;;;;;;1.67;0.80;;;;;;;;;;4936237;29;20027;-91
2021/10/01 06:31:44;;;;;;;5.07;1.08;;;;;;;;;;4928123;29;20485;-92
2021/10/01 06:34:11;;;;;;;4.53;1.08;;;;;;;;;;4923287;29;20401;-93
2021/10/01 06:36:37;;;;;;;3.20;1.30;;;;;;;;;;4922696;29;20103;-94
2021/10/01 06:39:06;;;;;;;3.53;1.38;;;;;;;;;;4922993;29;20499;-93
2021/10/01 06:41:33;;;;;;;3.28;1.23;;;;;;;;;;4922343;29;20020;-93
2021/10/01 06:44:02;;;;;;;3.25;1.00;;;;;;;;;;4922586;29;20060;-93
2021/10/01 06:46:38;;;;;;;5.20;1.33;;;;;;;;;;4922448;29;20035;-92
2021/10/01 08:20:26;;;;;;;3.60;1.98;;;;;;;;;;4918962;29;20043;-90
2021/10/01 08:22:53;;;;;;;3.20;2.00;;;;;;;;;;4901737;29;20044;-93
2021/10/01 08:25:19;;;;;;;3.25;2.08;;;;;;;;;;4906130;29;20059;-91
2021/10/01 08:27:47;;;;;;;4.93;1.83;;;;;;;;;;4901820;29;20040;-93
2021/10/01 08:30:22;;;;;;;5.45;2.30;;;;;;;;;;4901556;29;20032;-91
2021/10/01 08:32:49;;;;;;;4.97;2.10;;;;;;;;;;4902242;29;20040;-93
2021/10/01 08:35:15;;;;;;;4.82;2.60;;;;;;;;;;4905041;29;20051;-89
2021/10/01 08:37:41;;;;;;;4.65;2.88;;;;;;;;;;4920184;29;20024;-90
2021/10/01 08:40:08;;;;;;;4.45;2.95;;;;;;;;;;4920613;29;20035;-93
2021/10/01 08:42:34;;;;;;;5.75;3.08;;;;;;;;;;4919664;29;20042;-92
2021/10/01 08:45:01;;;;;;;9.27;3.97;;;;;;;;;;4921073;29;20031;-92
2021/10/01 08:47:28;;;;;;;6.60;4.10;;;;;;;;;;4920169;29;20477;-92
2021/10/01 08:49:56;;;;;;;7.00;4.95;;;;;;;;;;4919692;29;20034;-91
2021/10/01 08:52:22;;;;;;;8.05;4.78;;;;;;;;;;4920102;29;20024;-90
2021/10/01 08:54:49;;;;;;;7.05;4.00;;;;;;;;;;4920143;29;20067;-91
2021/10/01 08:57:15;;;;;;;8.25;3.58;;;;;;;;;;4920159;29;20024;-88
2021/10/01 08:59:41;;;;;;;6.95;3.88;;;;;;;;;;4920351;29;20027;-91
2021/10/01 09:02:07;;;;;;;6.88;4.10;;;;;;;;;;4920076;29;20477;-91
2021/10/01 09:04:52;;;;;;;8.13;4.10;;;;;;;;;;4920332;29;20028;-92
2021/10/01 09:07:19;;;;;;;8.55;4.70;;;;;;;;;;4920152;29;20031;-91
2021/10/01 09:09:45;;;;;;;8.95;4.95;;;;;;;;;;4920243;29;20034;-92
2021/10/01 09:12:14;;;;;;;7.07;4.38;;;;;;;;;;4919807;29;20074;-92
2021/10/01 09:14:52;;;;;;;5.90;4.03;;;;;;;;;;4920910;29;20043;-92
2021/10/01 09:17:20;;;;;;;5.85;3.78;;;;;;;;;;4919972;29;20137;-87
2021/10/01 09:19:46;;;;;;;6.18;3.90;;;;;;;;;;4920207;29;20034;-91
2021/10/01 09:22:31;;;;;;;7.22;3.78;;;;;;;;;;4919865;29;20516;-90
2021/10/01 09:25:08;;;;;;;5.68;3.35;;;;;;;;;;4919876;29;20052;-92
2021/10/01 09:27:38;;;;;;;6.15;3.40;;;;;;;;;;4919744;29;20028;-89
2021/10/01 09:30:05;;;;;;;8.20;4.00;;;;;;;;;;4919960;29;20024;-91
2021/10/01 09:32:35;;;;;;;7.43;3.40;;;;;;;;;;4920177;29;20046;-93
2021/10/01 09:35:10;;;;;;;6.53;3.78;;;;;;;;;;4919541;29;20075;-91
2021/10/01 09:37:36;;;;;;;6.97;3.58;;;;;;;;;;4920251;29;20036;-91
2021/10/01 09:40:02;;;;;;;8.63;3.92;;;;;;;;;;4919951;29;20027;-93
2021/10/01 09:42:33;;;;;;;6.60;3.83;;;;;;;;;;4919824;29;20035;-91
2021/10/01 09:45:06;;;;;;;8.25;4.47;;;;;;;;;;4919759;29;20034;-92
2021/10/01 09:47:34;;;;;;;6.28;3.97;;;;;;;;;;4919650;29;20050;-88
2021/10/01 09:50:01;;;;;;;9.32;4.55;;;;;;;;;;4918696;29;20028;-87
2021/10/01 09:52:47;;;;;;;9.32;4.57;;;;;;;;;;4916390;29;20047;-92
2021/10/01 09:55:14;;;;;;;7.22;4.63;;;;;;;;;;4904040;29;20501;-88
2021/10/01 09:57:59;;;;;;;7.47;4.55;;;;;;;;;;4903829;29;20484;-88
2021/10/01 10:00:33;;;;;;;7.65;4.40;;;;;;;;;;4904154;29;20032;-91
2021/10/01 10:02:59;;;;;;;9.50;4.47;;;;;;;;;;4904629;29;20363;-92
2021/10/01 10:05:45;;;;;;;7.03;4.28;;;;;;;;;;4904212;29;20031;-91
2021/10/01 10:08:11;;;;;;;7.90;4.35;;;;;;;;;;4904591;29;20488;-92
2021/10/01 10:10:46;;;;;;;6.10;4.22;;;;;;;;;;4904409;29;20044;-90
2021/10/01 10:13:12;;;;;;;7.18;4.32;;;;;;;;;;4903928;29;20092;-89
2021/10/01 10:15:39;;;;;;;7.25;4.88;;;;;;;;;;4905083;29;20063;-92
2021/10/01 10:18:05;;;;;;;9.98;5.30;;;;;;;;;;4903920;29;20389;-90
2021/10/01 10:20:31;;;;;;;6.50;4.00;;;;;;;;;;4904022;29;20099;-90
2021/10/01 10:22:57;;;;;;;6.78;4.57;;;;;;;;;;4903752;29;20120;-93
2021/10/01 10:25:23;;;;;;;6.93;4.57;;;;;;;;;;4918753;29;20477;-92
2021/10/01 10:27:49;;;;;;;5.65;4.38;;;;;;;;;;4922923;29;20039;-91
2021/10/01 10:30:18;;;;;;;6.80;4.50;;;;;;;;;;4922735;29;20068;-90
2021/10/01 10:32:44;;;;;;;5.97;4.15;;;;;;;;;;4922827;29;20381;-91
2021/10/01 10:35:11;;;;;;;6.50;3.80;;;;;;;;;;4922311;29;20052;-90
2021/10/01 10:37:50;;;;;;;6.20;3.63;;;;;;;;;;4922573;29;20024;-90
2021/10/01 10:40:16;;;;;;;9.52;4.03;;;;;;;;;;4922256;29;20031;-90
2021/10/01 10:42:44;;;;;;;7.53;4.50;;;;;;;;;;4922890;29;20024;-89
2021/10/01 10:45:24;;;;;;;5.00;3.90;;;;;;;;;;4922016;29;20508;-91
2021/10/01 10:47:53;;;;;;;4.90;3.80;;;;;;;;;;4922169;29;20118;-89
2021/10/01 10:50:25;;;;;;;5.93;3.85;;;;;;;;;;4921941;29;20031;-90
2021/10/01 10:55:37;;;;;;;8.45;3.53;;;;;;;;;;4938709;29;20390;-89
2021/10/01 10:58:22;;;;;;;4.18;3.13;;;;;;;;;;4921679;29;20110;-92
2021/10/01 11:00:49;;;;;;;5.00;3.22;;;;;;;;;;4922435;29;20420;-90
2021/10/01 11:03:21;;;;;;;5.15;3.28;;;;;;;;;;4918650;29;20438;-90
2021/10/01 11:05:47;;;;;;;;;;;;;;;;;;4921935;29;20157;-93
2021/10/01 11:08:28;;;;;;;8.18;2.92;;;;;;;;;;4923331;29;19961;-89
2021/10/01 11:10:54;;;;;;;4.75;3.10;;;;;;;;;;5003951;23;20055;-88
2021/10/01 11:13:24;;;;;;;5.00;3.25;;;;;;;;;;4939402;29;20023;-88
2021/10/01 11:16:08;;;;;;;5.85;3.42;;;;;;;;;;4939839;29;20046;-90
2021/10/01 11:18:58;;;;;;;4.72;3.15;;;;;;;;;;4923718;29;20035;-90
2021/10/01 11:21:34;;;;;;;6.97;3.50;;;;;;;;;;4918371;29;20039;-90
2021/10/01 11:24:19;;;;;;;5.15;3.33;;;;;;;;;;4923327;29;20032;-91
2021/10/01 11:27:11;;;;;;;4.78;3.53;;;;;;;;;;4922402;29;20496;-90
2021/10/01 11:29:37;;;;;;;6.03;3.88;;;;;;;;;;4918872;29;20047;-89
2021/10/01 11:32:18;;;;;;;5.35;3.70;;;;;;;;;;4921722;29;20035;-89
2021/10/01 11:34:57;;;;;;;4.90;3.58;;;;;;;;;;4922249;29;20046;-89
2021/10/01 11:37:29;;;;;;;4.45;3.20;;;;;;;;;;4921584;29;20035;-89
2021/10/01 11:39:55;;;;;;;;;;;;;;;;;;4921586;29;20503;-91
2021/10/01 11:42:28;;;;;;;6.78;2.97;;;;;;;;;;4921512;29;19914;-90
2021/10/01 11:44:56;;;;;;;5.65;3.10;;;;;;;;;;4921637;29;20027;-89
2021/10/01 11:47:22;;;;;;;4.93;2.78;;;;;;;;;;4920998;29;20366;-88
2021/10/01 11:49:56;;;;;;;5.18;2.53;;;;;;;;;;4921252;29;20477;-91
2021/10/01 11:52:23;;;;;;;5.45;3.10;;;;;;;;;;4921236;29;20058;-90
2021/10/01 11:55:00;;;;;;;8.55;2.90;;;;;;;;;;4918427;29;20047;-88
2021/10/01 11:57:43;;;;;;;4.18;1.73;;;;;;;;;;4920993;29;20028;-87
2021/10/01 12:00:11;;;;;;;4.43;1.75;;;;;;;;;;4921079;29;20020;-88
2021/10/01 12:02:48;;;;;;;3.97;1.65;;;;;;;;;;4920935;29;20066;-90
2021/10/01 12:05:17;;;;;;;3.63;2.05;;;;;;;;;;4920988;29;20513;-87
2021/10/01 12:07:48;;;;;;;3.78;1.83;;;;;;;;;;4920770;29;20027;-88
2021/10/01 12:10:14;;;;;;;4.03;2.15;;;;;;;;;;4922695;29;20035;-89
2021/10/01 12:12:59;;;;;;;3.00;1.80;;;;;;;;;;4922709;29;20558;-88
2021/10/01 12:15:40;;;;;;;3.95;2.20;;;;;;;;;;4937421;29;20036;-88
2021/10/01 12:18:06;;;;;;;5.25;1.80;;;;;;;;;;4920445;29;20035;-89
2021/10/01 12:20:49;;;;;;;3.42;2.13;;;;;;;;;;4920711;29;20023;-87
2021/10/01 12:23:25;;;;;;;4.07;2.40;;;;;;;;;;4920388;29;20051;-86
2021/10/01 12:25:52;;;;;;;4.03;2.45;;;;;;;;;;4920349;29;20035;-88
2021/10/01 12:28:19;;;;;;;4.05;2.35;;;;;;;;;;4920832;29;20087;-88
2021/10/01 12:30:45;;;;;;;3.58;1.98;;;;;;;;;;4920602;29;20027;-89
2021/10/01 12:33:11;;;;;;;4.78;2.13;;;;;;;;;;4920127;29;20083;-87
2021/10/01 12:35:38;;;;;;;5.60;2.30;;;;;;;;;;4936732;29;20114;-88
2021/10/01 12:38:04;;;;;;;3.90;2.42;;;;;;;;;;4919860;29;20028;-87
2021/10/01 12:40:31;;;;;;;4.22;2.55;;;;;;;;;;4937171;29;20103;-87
2021/10/01 12:42:57;;;;;;;5.70;2.70;;;;;;;;;;4920233;29;20072;-88
2021/10/01 12:45:23;;;;;;;4.65;2.53;;;;;;;;;;4919902;29;20130;-89
2021/10/01 12:47:50;;;;;;;3.63;2.40;;;;;;;;;;4920816;29;20032;-88
2021/10/01 12:50:19;;;;;;;4.68;2.42;;;;;;;;;;4920105;29;20068;-90
2021/10/01 12:52:46;;;;;;;4.95;2.83;;;;;;;;;;4919972;29;20031;-89
2021/10/01 12:55:13;;;;;;;4.50;2.92;;;;;;;;;;4919958;29;20065;-89
2021/10/01 12:57:41;;;;;;;6.95;2.95;;;;;;;;;;4920077;29;20031;-89
2021/10/01 13:00:16;;;;;;;7.68;2.90;;;;;;;;;;4936991;29;20059;-89
2021/10/01 13:02:43;;;;;;;5.53;2.30;;;;;;;;;;4920245;29;20028;-89
2021/10/01 13:05:15;;;;;;;4.63;2.50;;;;;;;;;;4920052;29;20028;-90
2021/10/01 13:07:42;;;;;;;5.07;2.10;;;;;;;;;;4920442;29;20036;-87
2021/10/01 13:10:14;;;;;;;4.63;2.20;;;;;;;;;;4919952;29;20024;-89
2021/10/01 13:12:54;;;;;;;5.80;2.70;;;;;;;;;;4920280;29;20039;-91
2021/10/01 13:15:21;;;;;;;4.57;2.08;;;;;;;;;;4920035;29;20144;-91
2021/10/01 13:18:07;;;;;;;4.15;2.42;;;;;;;;;;4919998;29;20027;-89
2021/10/01 13:20:39;;;;;;;5.03;2.13;;;;;;;;;;4919685;29;20493;-91
2021/10/01 13:23:13;;;;;;;7.72;2.50;;;;;;;;;;4920196;29;20143;-93
2021/10/01 13:25:53;;;;;;;4.03;1.85;;;;;;;;;;4919612;29;20078;-89
2021/10/01 13:28:20;;;;;;;3.65;2.13;;;;;;;;;;4921190;29;20070;-94
2021/10/01 13:30:48;;;;;;;3.15;2.08;;;;;;;;;;4923521;29;20024;-87
2021/10/01 13:33:16;;;;;;;3.60;1.70;;;;;;;;;;4923787;29;20104;-94
2021/10/01 13:35:48;;;;;;;3.35;1.92;;;;;;;;;;4923767;29;20067;-94
2021/10/01 13:38:25;;;;;;;3.90;2.17;;;;;;;;;;4921762;29;20481;-95
2021/10/01 13:40:51;;;;;;;3.47;1.80;;;;;;;;;;4924043;29;20126;-89
2021/10/01 13:43:17;;;;;;;6.10;2.30;;;;;;;;;;4923145;29;20023;-90
2021/10/01 13:45:44;;;;;;;6.35;2.08;;;;;;;;;;4923587;29;20032;-87
2021/10/01 13:48:12;;;;;;;4.20;1.77;;;;;;;;;;4923648;29;20036;-87
2021/10/01 13:50:38;;;;;;;6.63;2.30;;;;;;;;;;4923235;29;20397;-86
2021/10/01 13:53:04;;;;;;;4.53;2.28;;;;;;;;;;4923072;29;20024;-88
2021/10/01 13:55:31;;;;;;;5.47;2.35;;;;;;;;;;4923207;29;20039;-89
2021/10/01 13:57:57;;;;;;;5.32;2.40;;;;;;;;;;4923132;29;20067;-89
2021/10/01 14:00:24;;;;;;;7.78;2.50;;;;;;;;;;4923363;29;20057;-88
2021/10/01 14:02:50;;;;;;;4.15;2.30;;;;;;;;;;4922899;29;20144;-90
2021/10/01 14:05:16;;;;;;;5.88;2.33;;;;;;;;;;4924227;29;20035;-91
2021/10/01 14:07:45;;;;;;;5.25;2.30;;;;;;;;;;4923352;29;20085;-90
2021/10/01 14:10:16;;;;;;;4.55;2.80;;;;;;;;;;4922820;29;20087;-90
2021/10/01 14:12:43;;;;;;;5.85;2.72;;;;;;;;;;4922905;29;20035;-90
2021/10/01 14:15:10;;;;;;;4.85;2.80;;;;;;;;;;4922660;29;20126;-90
2021/10/01 14:17:37;;;;;;;6.53;3.03;;;;;;;;;;4923075;29;20497;-91
2021/10/01 14:20:04;;;;;;;6.43;3.33;;;;;;;;;;4923118;29;20126;-92
2021/10/01 14:22:30;;;;;;;8.45;3.08;;;;;;;;;;4922695;29;20557;-82
2021/10/01 14:24:57;;;;;;;5.05;2.72;;;;;;;;;;4938796;29;20047;-84
2021/10/01 14:27:23;;;;;;;18.25;3.22;;;;;;;;;;4921809;29;20028;-85
2021/10/01 14:29:49;;;;;;;7.28;2.95;;;;;;;;;;4921795;29;20032;-85
2021/10/01 14:32:15;;;;;;;8.27;3.33;;;;;;;;;;4921850;29;20086;-85
2021/10/01 14:34:42;;;;;;;15.10;3.55;;;;;;;;;;4921710;29;20059;-85
2021/10/01 14:37:08;;;;;;;5.93;3.70;;;;;;;;;;4921735;29;20462;-84
2021/10/01 14:39:34;;;;;;;5.75;3.67;;;;;;;;;;4920556;29;20497;-84
2021/10/01 14:42:00;;;;;;;8.52;3.63;;;;;;;;;;4921478;29;20028;-82
2021/10/01 14:44:27;;;;;;;7.88;3.88;;;;;;;;;;4923813;29;20020;-90
2021/10/01 14:46:53;;;;;;;9.98;5.35;;;;;;;;;;4923803;29;20035;-91
2021/10/01 14:49:20;;;;;;;8.07;4.90;;;;;;;;;;4922421;29;20024;-88
2021/10/01 14:51:46;;;;;;;6.43;4.15;;;;;;;;;;4922819;29;20036;-89
2021/10/01 14:54:12;;;;;;;7.15;4.07;;;;;;;;;;4924558;29;20023;-91
2021/10/01 14:56:40;;;;;;;6.63;3.88;;;;;;;;;;4924829;29;20063;-90
2021/10/01 14:59:06;;;;;;;5.57;3.60;;;;;;;;;;4923688;29;20457;-93
2021/10/01 15:01:39;;;;;;;9.57;3.65;;;;;;;;;;4924365;29;20394;-95
2021/10/01 15:04:10;;;;;;;7.97;3.60;;;;;;;;;;4948408;28;20088;-93
